createdAt,value
2022-10-31T00:03:12.467Z,5.10
2022-10-31T00:08:14.945Z,4.88
2022-10-31T00:13:17.136Z,5.25
2022-10-31T00:18:19.096Z,5.05
2022-10-31T00:23:20.920Z,5.05
2022-10-31T00:28:25.414Z,4.80
2022-10-31T00:33:28.522Z,5.47
2022-10-31T00:38:31.412Z,6.05
2022-10-31T00:43:33.313Z,5.97
2022-10-31T00:48:35.275Z,5.43
2022-10-31T00:53:37.484Z,5.80
2022-10-31T00:58:39.536Z,6.25
2022-10-31T01:03:42.499Z,5.78
2022-10-31T01:08:48.183Z,5.85
2022-10-31T01:13:54.627Z,5.13
2022-10-31T01:18:56.566Z,5.13
2022-10-31T01:23:58.469Z,5.32
2022-10-31T01:29:09.565Z,4.22
2022-10-31T01:34:15.716Z,4.45
2022-10-31T01:39:19.650Z,4.85
2022-10-31T01:49:39.211Z,4.30
2022-10-31T01:54:45.153Z,3.78
2022-10-31T01:59:49.860Z,4.05
2022-10-31T02:04:51.922Z,3.83
2022-10-31T02:09:55.164Z,3.00
2022-10-31T02:20:20.197Z,3.72
2022-10-31T02:25:22.221Z,3.65
2022-10-31T02:30:26.038Z,3.15
2022-10-31T02:35:38.624Z,3.55
2022-10-31T02:40:43.586Z,4.05
2022-10-31T02:46:50.473Z,3.90
2022-10-31T02:51:52.396Z,3.63
2022-10-31T02:57:00.248Z,3.83
2022-10-31T03:02:17.728Z,4.10
2022-10-31T03:12:44.560Z,4.65
2022-10-31T03:18:02.128Z,4.45
2022-10-31T03:23:08.097Z,4.78
2022-10-31T03:28:11.563Z,4.40
2022-10-31T03:33:19.220Z,4.63
2022-10-31T03:38:23.093Z,4.53
2022-10-31T03:43:29.796Z,4.97
2022-10-31T03:48:31.960Z,4.82
2022-10-31T03:53:38.244Z,5.25
2022-10-31T03:58:46.180Z,4.90
2022-10-31T04:03:49.130Z,5.60
2022-10-31T04:08:58.635Z,5.43
2022-10-31T04:14:01.675Z,4.80
2022-10-31T04:19:03.812Z,4.43
2022-10-31T04:24:06.145Z,5.35
2022-10-31T04:29:08.748Z,5.18
2022-10-31T04:34:10.603Z,5.13
2022-10-31T04:39:12.614Z,4.70
2022-10-31T04:44:21.339Z,5.13
2022-10-31T04:49:26.751Z,5.28
2022-10-31T04:54:28.885Z,4.82
2022-10-31T04:59:49.231Z,5.00
2022-10-31T05:04:51.448Z,4.75
2022-10-31T05:09:54.262Z,4.75
2022-10-31T05:14:57.324Z,4.72
2022-10-31T05:20:19.145Z,5.45
2022-10-31T05:25:42.604Z,5.32
2022-10-31T05:30:44.528Z,5.00
2022-10-31T05:35:50.141Z,4.78
2022-10-31T05:41:07.475Z,5.10
2022-10-31T05:46:09.922Z,4.75
2022-10-31T05:51:30.348Z,4.55
2022-10-31T05:56:32.499Z,4.93
2022-10-31T06:01:35.401Z,4.85
2022-10-31T06:06:41.385Z,5.18
2022-10-31T06:11:43.828Z,5.65
2022-10-31T06:17:00.811Z,4.80
2022-10-31T06:29:53.595Z,4.65
2022-10-31T06:35:04.085Z,4.22
2022-10-31T06:40:09.178Z,5.35
2022-10-31T06:45:31.012Z,6.63
2022-10-31T06:51:00.250Z,5.32
2022-10-31T06:56:04.827Z,4.97
2022-10-31T07:01:44.558Z,4.57
2022-10-31T07:06:51.674Z,4.60
2022-10-31T07:11:54.608Z,4.82
2022-10-31T07:16:56.720Z,4.78
2022-10-31T07:22:05.474Z,5.22
2022-10-31T07:27:08.860Z,4.78
2022-10-31T07:32:10.940Z,6.00
2022-10-31T07:37:18.715Z,4.63
2022-10-31T07:42:20.639Z,4.68
2022-10-31T07:47:22.715Z,5.38
2022-10-31T07:52:43.408Z,5.53
2022-10-31T07:58:17.389Z,5.32
2022-10-31T08:03:20.395Z,5.25
2022-10-31T08:08:40.658Z,4.82
2022-10-31T08:13:44.440Z,5.30
2022-10-31T08:18:49.570Z,5.65
2022-10-31T08:23:51.828Z,5.72
2022-10-31T08:28:56.507Z,10.35
2022-10-31T08:34:01.600Z,8.48
2022-10-31T08:39:42.281Z,6.05
2022-10-31T08:44:44.415Z,5.00
2022-10-31T08:49:46.351Z,4.88
2022-10-31T08:54:49.357Z,4.55
2022-10-31T09:00:20.640Z,4.53
2022-10-31T09:05:36.314Z,5.05
2022-10-31T09:10:38.621Z,4.40
2022-10-31T09:15:42.412Z,3.72
2022-10-31T09:20:54.986Z,4.78
2022-10-31T09:25:57.318Z,5.05
2022-10-31T09:31:18.306Z,5.05
2022-10-31T09:36:39.984Z,4.97
2022-10-31T09:41:51.822Z,5.10
2022-10-31T09:47:43.368Z,4.90
2022-10-31T09:53:08.602Z,5.72
2022-10-31T09:58:22.214Z,4.93
2022-10-31T10:03:42.112Z,6.15
2022-10-31T10:09:04.140Z,5.72
2022-10-31T10:14:53.631Z,5.43
2022-10-31T10:20:24.385Z,4.95
2022-10-31T10:25:42.974Z,4.82
2022-10-31T10:30:50.031Z,5.13
2022-10-31T10:35:54.304Z,5.60
2022-10-31T10:40:56.563Z,5.75
2022-10-31T10:46:52.816Z,5.00
2022-10-31T10:52:13.324Z,5.25
2022-10-31T10:57:35.032Z,5.93
2022-10-31T11:02:37.021Z,5.43
2022-10-31T11:07:41.961Z,5.47
2022-10-31T11:12:46.570Z,5.13
2022-10-31T11:17:51.566Z,5.72
2022-10-31T11:23:03.015Z,8.52
2022-10-31T11:35:30.300Z,6.28
2022-10-31T11:40:32.344Z,5.68
2022-10-31T11:45:35.242Z,5.47
2022-10-31T11:50:41.218Z,5.80
2022-10-31T11:55:44.858Z,6.18
2022-10-31T12:01:56.679Z,5.95
2022-10-31T12:06:58.964Z,6.40
2022-10-31T12:12:03.697Z,6.70
2022-10-31T12:17:05.513Z,6.47
2022-10-31T12:22:19.104Z,6.30
2022-10-31T12:27:25.168Z,7.13
2022-10-31T12:33:01.750Z,6.45
2022-10-31T12:38:29.331Z,6.47
2022-10-31T12:43:52.350Z,12.45
2022-10-31T12:49:18.376Z,8.07
2022-10-31T12:54:35.138Z,8.48
2022-10-31T12:59:42.602Z,7.55
2022-10-31T13:05:02.499Z,9.55
2022-10-31T13:10:14.278Z,16.42
2022-10-31T13:15:23.481Z,11.68
2022-10-31T13:20:34.369Z,8.05
2022-10-31T13:25:41.671Z,7.38
2022-10-31T13:30:44.380Z,13.65
2022-10-31T13:36:14.352Z,9.77
2022-10-31T13:41:44.123Z,10.55
2022-10-31T13:46:46.342Z,16.83
2022-10-31T13:51:49.849Z,11.80
2022-10-31T13:56:52.803Z,8.98
2022-10-31T14:01:57.714Z,9.43
2022-10-31T14:07:08.852Z,9.88
2022-10-31T14:12:23.641Z,8.70
2022-10-31T14:17:28.205Z,9.23
2022-10-31T14:22:36.317Z,6.72
2022-10-31T14:27:48.054Z,7.75
2022-10-31T14:33:18.226Z,7.43
2022-10-31T14:43:58.075Z,5.65
2022-10-31T14:49:35.052Z,6.80
2022-10-31T14:54:43.912Z,6.75
2022-10-31T14:59:50.550Z,6.32
2022-10-31T15:04:54.057Z,5.90
2022-10-31T15:09:57.569Z,5.25
2022-10-31T15:15:12.613Z,5.25
2022-10-31T15:20:19.326Z,4.75
2022-10-31T15:25:23.731Z,4.40
2022-10-31T15:30:28.988Z,4.80
2022-10-31T15:35:31.908Z,4.20
2022-10-31T15:40:34.413Z,4.53
2022-10-31T15:45:36.556Z,4.88
2022-10-31T15:50:41.465Z,5.40
2022-10-31T15:55:50.581Z,5.28
2022-10-31T16:01:04.102Z,5.55
2022-10-31T16:06:07.480Z,5.78
2022-10-31T16:11:13.722Z,6.35
2022-10-31T16:21:39.692Z,7.18
2022-10-31T16:26:41.564Z,6.20
2022-10-31T16:31:43.640Z,6.75
2022-10-31T16:36:45.626Z,7.43
2022-10-31T16:41:51.834Z,7.93
2022-10-31T16:47:10.242Z,7.55
2022-10-31T16:52:12.374Z,8.13
2022-10-31T16:57:21.014Z,6.80
2022-10-31T17:02:23.125Z,6.13
2022-10-31T17:14:20.392Z,8.23
2022-10-31T17:19:22.395Z,8.35
2022-10-31T17:24:24.449Z,7.10
2022-10-31T17:29:26.590Z,6.60
2022-10-31T17:34:28.742Z,6.20
2022-10-31T17:39:30.710Z,6.05
2022-10-31T17:44:32.894Z,4.80
2022-10-31T17:49:34.833Z,6.85
2022-10-31T17:54:41.611Z,11.43
2022-10-31T17:59:43.760Z,7.38
2022-10-31T18:04:45.731Z,5.20
2022-10-31T18:09:48.006Z,4.93
2022-10-31T18:14:51.843Z,2.47
2022-10-31T18:19:53.751Z,3.08
2022-10-31T18:25:00.857Z,2.60
2022-10-31T18:30:04.208Z,3.20
2022-10-31T18:35:06.911Z,3.50
2022-10-31T18:40:09.383Z,2.88
2022-10-31T18:45:23.929Z,3.42
2022-10-31T18:50:33.471Z,5.00
2022-10-31T18:55:43.984Z,3.80
2022-10-31T19:00:49.476Z,3.47
2022-10-31T19:05:55.310Z,3.42
2022-10-31T19:11:04.431Z,4.07
2022-10-31T19:16:17.108Z,4.20
2022-10-31T19:21:19.078Z,4.95
2022-10-31T19:26:53.398Z,6.15
2022-10-31T19:31:55.297Z,5.60
2022-10-31T19:36:57.346Z,4.55
2022-10-31T19:41:59.395Z,4.20
2022-10-31T19:47:01.290Z,5.00
2022-10-31T19:52:03.391Z,4.50
2022-10-31T19:57:05.272Z,4.85
2022-10-31T20:02:07.647Z,5.57
2022-10-31T20:07:41.382Z,10.45
2022-10-31T20:12:43.434Z,9.75
2022-10-31T20:17:45.963Z,6.95
2022-10-31T20:22:50.289Z,7.47
2022-10-31T20:27:53.032Z,6.28
2022-10-31T20:33:38.645Z,4.80
2022-10-31T20:38:41.619Z,4.95
2022-10-31T20:43:44.395Z,10.25
2022-10-31T20:48:46.558Z,6.50
2022-10-31T20:53:49.663Z,5.75
2022-10-31T20:58:51.980Z,5.70
2022-10-31T21:03:53.998Z,5.53
2022-10-31T21:08:58.071Z,5.30
2022-10-31T21:14:00.110Z,5.50
2022-10-31T21:19:05.200Z,5.32
2022-10-31T21:29:21.686Z,3.88
2022-10-31T21:34:23.652Z,4.13
2022-10-31T21:39:27.843Z,4.15
2022-10-31T21:44:29.688Z,5.07
2022-10-31T21:49:31.661Z,5.18
2022-10-31T21:54:33.795Z,4.57
2022-10-31T21:59:38.087Z,5.32
2022-10-31T22:09:47.397Z,5.43
2022-10-31T22:14:49.287Z,5.57
2022-10-31T22:19:51.250Z,5.57
2022-10-31T22:24:53.163Z,5.32
2022-10-31T22:29:56.698Z,8.18
2022-10-31T22:34:59.396Z,7.15
2022-10-31T22:40:01.447Z,6.63
2022-10-31T22:45:03.876Z,6.93
2022-10-31T22:50:06.190Z,6.72
2022-10-31T22:55:09.364Z,6.05
2022-10-31T23:00:11.756Z,5.60
2022-10-31T23:05:14.156Z,5.03
2022-10-31T23:10:16.028Z,4.35
2022-10-31T23:15:18.801Z,4.53
2022-10-31T23:20:20.799Z,4.38
2022-10-31T23:25:41.536Z,4.00
2022-10-31T23:30:46.615Z,5.07
2022-10-31T23:35:48.622Z,4.82
2022-10-31T23:40:50.433Z,5.30
2022-10-31T23:45:52.428Z,4.82
2022-10-31T23:50:54.409Z,4.40
2022-10-31T23:55:56.321Z,4.25
